Terminal Aerodrome Forecast
Issued by NWS Cleveland, OH

Home | Current Version | Previous Version | Text Only | Print | Product List | Glossary Off
Versions: 1 2 3 4 5 6 7 8 9 10 11 12 13 14 15 16 17 18 19 20 21 22 23 24 25 26 27 28 29 30 31 32 33 34 35 36 37 38 39 40

000
FTUS41 KCLE 212300
TAFCLE
TAF
KCLE 212338Z 2200/2306 34012KT 6SM -RA BR SCT008 OVC015
      TEMPO 2200/2203 4SM -RA BR BKN008 OVC015
     FM220400 35010KT P6SM SCT008 OVC018
     FM221500 36012KT P6SM OVC020
     FM222000 36010KT P6SM BKN035
     FM230100 36008KT P6SM SCT035=

USA.gov is the U.S. government's official web portal to all federal, state and local government web resources and services.